createdAt,value
2019-04-07T00:00:32.553Z,7.24
2019-04-07T00:01:32.269Z,7.23
2019-04-07T00:02:32.437Z,7.23
2019-04-07T00:03:32.355Z,7.24
2019-04-07T00:04:32.972Z,7.29
2019-04-07T00:05:32.310Z,7.27
2019-04-07T00:06:32.302Z,7.25
2019-04-07T00:07:32.285Z,7.27
2019-04-07T00:08:32.931Z,7.28
2019-04-07T00:09:32.305Z,7.29
2019-04-07T00:10:32.292Z,7.28
2019-04-07T00:11:32.452Z,7.28
2019-04-07T00:12:32.321Z,7.28
2019-04-07T00:13:32.728Z,7.26
2019-04-07T00:14:32.913Z,7.28
2019-04-07T00:15:32.332Z,7.30
2019-04-07T00:16:32.757Z,7.29
2019-04-07T00:17:32.351Z,7.25
2019-04-07T00:18:32.319Z,7.28
2019-04-07T00:19:32.318Z,7.28
2019-04-07T00:20:32.320Z,7.30
2019-04-07T00:21:33.128Z,7.29
2019-04-07T00:22:32.391Z,7.33
2019-04-07T00:23:32.337Z,7.27
2019-04-07T00:24:32.329Z,7.26
2019-04-07T00:25:32.324Z,7.28
2019-04-07T00:26:32.335Z,7.27
2019-04-07T00:27:32.326Z,7.27
2019-04-07T00:28:32.515Z,7.25
2019-04-07T00:29:32.344Z,7.21
2019-04-07T00:30:32.303Z,7.18
2019-04-07T00:31:32.310Z,7.17
2019-04-07T00:32:32.772Z,7.22
2019-04-07T00:33:32.352Z,7.22
2019-04-07T00:34:32.306Z,7.22
2019-04-07T00:35:33.282Z,7.19
2019-04-07T00:36:32.876Z,7.18
2019-04-07T00:37:32.749Z,7.17
2019-04-07T00:38:32.545Z,7.15
2019-04-07T00:39:32.351Z,7.07
2019-04-07T00:40:32.335Z,7.07
2019-04-07T00:41:32.341Z,7.09
2019-04-07T00:42:32.617Z,7.06
2019-04-07T00:43:32.331Z,7.08
2019-04-07T00:44:32.823Z,7.10
2019-04-07T00:45:32.344Z,7.07
2019-04-07T00:46:32.321Z,7.05
2019-04-07T00:47:32.354Z,7.02
2019-04-07T00:48:32.358Z,7.01
2019-04-07T00:49:32.333Z,7.00
2019-04-07T00:50:32.596Z,6.99
2019-04-07T00:51:32.425Z,7.12
2019-04-07T00:52:32.707Z,7.14
2019-04-07T00:53:32.374Z,7.12
2019-04-07T00:54:32.665Z,7.17
2019-04-07T00:55:32.324Z,7.34
2019-04-07T00:56:32.346Z,7.36
2019-04-07T00:57:32.842Z,7.32
2019-04-07T00:58:32.352Z,7.30
2019-04-07T00:59:33.407Z,7.66
2019-04-07T01:00:32.440Z,7.69
2019-04-07T01:01:32.340Z,7.76
2019-04-07T01:02:32.374Z,8.00
2019-04-07T01:03:32.692Z,8.10
2019-04-07T01:04:32.358Z,8.25
2019-04-07T01:05:36.166Z,8.61
2019-04-07T01:06:32.897Z,8.66
2019-04-07T01:07:32.332Z,8.61
2019-04-07T01:08:32.619Z,8.57
2019-04-07T01:09:32.633Z,8.61
2019-04-07T01:10:32.731Z,8.67
2019-04-07T01:11:32.397Z,8.64
2019-04-07T01:12:32.374Z,8.56
2019-04-07T01:13:32.457Z,8.49
2019-04-07T01:14:32.405Z,8.25
2019-04-07T01:15:33.016Z,8.05
2019-04-07T01:16:32.749Z,7.91
2019-04-07T01:17:32.371Z,7.88
2019-04-07T01:18:32.667Z,7.93
2019-04-07T01:19:32.341Z,7.92
2019-04-07T01:20:32.372Z,7.99
2019-04-07T01:21:33.013Z,8.03
2019-04-07T01:22:32.949Z,7.95
2019-04-07T01:23:32.517Z,7.91
2019-04-07T01:24:33.046Z,7.86
2019-04-07T01:25:32.350Z,7.76
2019-04-07T01:26:32.706Z,7.63
2019-04-07T01:27:32.372Z,7.64
2019-04-07T01:28:32.834Z,7.67
2019-04-07T01:29:33.188Z,7.55
2019-04-07T01:30:32.677Z,7.51
2019-04-07T01:31:32.937Z,7.45
2019-04-07T01:32:32.359Z,7.45
2019-04-07T01:33:32.388Z,7.44
2019-04-07T01:34:32.372Z,7.46
2019-04-07T01:35:32.919Z,7.57
2019-04-07T01:36:32.623Z,7.55
2019-04-07T01:37:32.369Z,7.49
2019-04-07T01:38:32.398Z,7.46
2019-04-07T01:39:32.389Z,7.40
2019-04-07T01:40:32.388Z,7.29
2019-04-07T01:41:32.866Z,7.24
2019-04-07T01:42:32.394Z,7.26
2019-04-07T01:43:32.689Z,7.21
2019-04-07T01:44:32.381Z,7.10
2019-04-07T01:45:32.408Z,7.02
2019-04-07T01:46:32.682Z,6.90
2019-04-07T01:47:32.411Z,6.90
2019-04-07T01:48:32.393Z,6.90
2019-04-07T01:49:32.364Z,6.90
2019-04-07T01:50:32.773Z,6.89
2019-04-07T01:51:32.398Z,6.95
2019-04-07T01:52:32.801Z,7.99
2019-04-07T01:53:32.385Z,7.57
2019-04-07T01:54:32.964Z,7.47
2019-04-07T01:55:32.370Z,7.25
2019-04-07T01:56:32.621Z,7.21
2019-04-07T01:57:32.422Z,7.14
2019-04-07T01:58:32.892Z,6.98
2019-04-07T01:59:32.408Z,6.99
2019-04-07T02:00:32.589Z,6.95
2019-04-07T02:01:32.691Z,6.89
2019-04-07T02:02:32.488Z,6.88
2019-04-07T02:03:32.926Z,6.85
2019-04-07T02:04:32.529Z,6.87
2019-04-07T02:05:32.510Z,6.83
2019-04-07T02:06:32.402Z,6.72
2019-04-07T02:07:32.636Z,6.66
2019-04-07T02:08:32.487Z,6.53
2019-04-07T02:09:32.505Z,6.44
2019-04-07T02:10:32.400Z,6.46
2019-04-07T02:11:32.531Z,6.44
2019-04-07T02:12:32.408Z,6.24
2019-04-07T02:13:32.857Z,6.34
2019-04-07T02:14:32.403Z,6.33
2019-04-07T02:15:32.801Z,6.32
2019-04-07T02:16:32.389Z,6.22
2019-04-07T02:17:32.620Z,6.16
2019-04-07T02:18:32.839Z,6.07
2019-04-07T02:19:32.768Z,5.99
2019-04-07T02:20:32.412Z,6.01
2019-04-07T02:21:32.759Z,5.96
2019-04-07T02:22:32.441Z,5.85
2019-04-07T02:23:32.711Z,5.69
2019-04-07T02:24:32.442Z,5.69
2019-04-07T02:25:32.569Z,5.62
2019-04-07T02:26:32.399Z,5.59
2019-04-07T02:27:32.718Z,5.53
2019-04-07T02:28:32.989Z,5.52
2019-04-07T02:29:32.474Z,5.48
2019-04-07T02:30:33.160Z,5.44
2019-04-07T02:31:32.400Z,5.43
2019-04-07T02:32:32.454Z,5.36
2019-04-07T02:33:33.116Z,5.32
2019-04-07T02:34:32.431Z,5.35
2019-04-07T02:35:32.440Z,5.28
2019-04-07T02:36:33.611Z,5.22
2019-04-07T02:37:33.278Z,5.16
2019-04-07T02:38:32.432Z,5.07
2019-04-07T02:39:32.689Z,5.05
2019-04-07T02:40:33.056Z,5.22
2019-04-07T02:41:32.580Z,5.16
2019-04-07T02:42:32.421Z,5.07
2019-04-07T02:43:32.741Z,5.04
2019-04-07T02:44:33.541Z,5.01
2019-04-07T02:45:32.488Z,4.92
2019-04-07T02:46:33.241Z,4.88
2019-04-07T02:47:32.434Z,5.09
2019-04-07T02:48:32.431Z,4.94
2019-04-07T02:49:32.562Z,4.91
2019-04-07T02:50:33.266Z,4.93
2019-04-07T02:51:32.456Z,4.90
2019-04-07T02:52:33.200Z,4.83
2019-04-07T02:53:33.002Z,4.82
2019-04-07T02:54:32.441Z,4.81
2019-04-07T02:55:33.456Z,4.79
2019-04-07T02:56:32.585Z,4.91
2019-04-07T02:57:32.455Z,4.81
2019-04-07T02:58:32.815Z,4.74
2019-04-07T02:59:33.330Z,4.73
2019-04-07T03:00:32.457Z,4.63
2019-04-07T03:01:33.026Z,4.58
2019-04-07T03:02:33.305Z,4.59
2019-04-07T03:03:33.099Z,4.56
2019-04-07T03:04:32.919Z,4.50
2019-04-07T03:05:33.296Z,4.67
2019-04-07T03:06:43.041Z,4.64
2019-04-07T03:07:32.724Z,4.56
2019-04-07T03:08:32.441Z,4.48
2019-04-07T03:09:33.372Z,4.44
2019-04-07T03:10:33.399Z,4.38
2019-04-07T03:11:32.485Z,4.42
2019-04-07T03:12:33.223Z,4.55
2019-04-07T03:13:32.443Z,4.44
2019-04-07T03:14:33.279Z,4.42
2019-04-07T03:15:32.577Z,4.55
2019-04-07T03:16:32.489Z,4.54
2019-04-07T03:17:32.482Z,4.51
2019-04-07T03:18:33.109Z,4.52
2019-04-07T03:19:33.285Z,4.46
2019-04-07T03:20:32.586Z,4.43
2019-04-07T03:21:33.060Z,4.33
2019-04-07T03:22:32.571Z,4.24
2019-04-07T03:23:32.491Z,4.22
2019-04-07T03:24:33.409Z,4.16
2019-04-07T03:25:32.522Z,4.21
2019-04-07T03:26:32.498Z,4.33
2019-04-07T03:27:32.470Z,4.25
2019-04-07T03:28:33.351Z,4.20
2019-04-07T03:29:33.329Z,4.16
2019-04-07T03:30:33.748Z,4.10
2019-04-07T03:31:32.977Z,4.07
2019-04-07T03:32:33.123Z,4.00
2019-04-07T03:33:33.461Z,3.99
2019-04-07T03:34:33.481Z,4.03
2019-04-07T03:35:34.336Z,4.00
2019-04-07T03:36:50.787Z,3.94
2019-04-07T03:37:39.793Z,3.91
2019-04-07T03:38:33.349Z,3.86
2019-04-07T03:39:33.342Z,3.87
2019-04-07T03:40:33.465Z,3.92
2019-04-07T03:41:33.231Z,3.88
2019-04-07T03:42:32.785Z,3.86
2019-04-07T03:43:32.829Z,3.81
2019-04-07T03:44:32.485Z,3.78
2019-04-07T03:45:32.722Z,3.74
2019-04-07T03:46:32.628Z,3.72
2019-04-07T03:47:32.502Z,3.68
2019-04-07T03:48:32.541Z,3.66
2019-04-07T03:49:32.489Z,3.69
2019-04-07T03:50:33.219Z,3.67
2019-04-07T03:51:33.022Z,3.87
2019-04-07T03:52:32.461Z,3.95
2019-04-07T03:53:33.531Z,3.89
2019-04-07T03:54:33.497Z,3.93
2019-04-07T03:55:32.470Z,4.01
2019-04-07T03:56:32.500Z,3.91
2019-04-07T03:57:32.612Z,3.88
2019-04-07T03:58:32.491Z,3.85
2019-04-07T03:59:33.309Z,3.84
2019-04-07T04:00:32.487Z,3.79
2019-04-07T04:01:33.169Z,3.75
2019-04-07T04:02:33.227Z,3.71
2019-04-07T04:03:32.507Z,3.74
2019-04-07T04:04:32.477Z,3.86
2019-04-07T04:05:32.940Z,3.79
2019-04-07T04:06:32.509Z,3.88
2019-04-07T04:07:36.129Z,3.99
2019-04-07T04:08:32.732Z,3.90
2019-04-07T04:09:32.521Z,3.91
2019-04-07T04:10:32.471Z,3.87
2019-04-07T04:11:32.567Z,3.82
2019-04-07T04:12:32.500Z,3.79
2019-04-07T04:13:32.787Z,3.71
2019-04-07T04:14:33.275Z,3.65
2019-04-07T04:15:32.905Z,3.67
2019-04-07T04:16:32.495Z,3.62
2019-04-07T04:17:32.803Z,3.61
2019-04-07T04:18:32.498Z,3.70
2019-04-07T04:19:32.482Z,3.65
2019-04-07T04:20:32.498Z,3.64
2019-04-07T04:21:32.873Z,3.57
2019-04-07T04:22:32.606Z,3.61
2019-04-07T04:23:33.396Z,3.82
2019-04-07T04:24:32.513Z,3.74
2019-04-07T04:25:32.482Z,3.65
2019-04-07T04:26:32.522Z,3.60
2019-04-07T04:27:33.323Z,3.56
2019-04-07T04:28:32.493Z,3.50
2019-04-07T04:29:33.227Z,3.48
2019-04-07T04:30:32.501Z,3.71
2019-04-07T04:31:32.495Z,3.77
2019-04-07T04:32:32.899Z,3.70
2019-04-07T04:33:33.035Z,3.67
2019-04-07T04:34:32.925Z,3.62
2019-04-07T04:35:32.519Z,3.70
2019-04-07T04:36:33.397Z,3.68
2019-04-07T04:37:40.491Z,3.59
2019-04-07T04:38:32.513Z,3.58
2019-04-07T04:39:33.452Z,3.70
2019-04-07T04:40:32.517Z,3.68
2019-04-07T04:41:32.966Z,3.62
2019-04-07T04:42:33.723Z,3.55
2019-04-07T04:43:32.506Z,3.50
2019-04-07T04:44:32.499Z,3.48
2019-04-07T04:45:32.530Z,3.47
2019-04-07T04:46:32.758Z,3.58
2019-04-07T04:47:32.864Z,3.59
2019-04-07T04:48:32.536Z,3.59
2019-04-07T04:49:32.500Z,3.69
2019-04-07T04:50:32.531Z,3.68
2019-04-07T04:51:37.071Z,3.64
2019-04-07T04:52:32.546Z,3.63
2019-04-07T04:53:32.542Z,3.62
2019-04-07T04:54:33.359Z,3.59
2019-04-07T04:55:32.546Z,3.62
2019-04-07T04:56:32.801Z,3.74
2019-04-07T04:57:32.535Z,3.74
2019-04-07T04:58:32.526Z,3.82
2019-04-07T04:59:33.286Z,3.83
2019-04-07T05:00:32.528Z,3.78
2019-04-07T05:01:33.101Z,3.89
2019-04-07T05:02:32.650Z,3.94
2019-04-07T05:03:32.835Z,3.98
2019-04-07T05:04:32.804Z,4.00
2019-04-07T05:05:32.786Z,4.03
2019-04-07T05:06:33.178Z,4.03
2019-04-07T05:07:32.541Z,4.06
2019-04-07T05:08:32.559Z,4.10
2019-04-07T05:09:43.215Z,4.12
2019-04-07T05:10:32.619Z,4.19
2019-04-07T05:11:32.798Z,4.27
2019-04-07T05:12:32.561Z,4.45
2019-04-07T05:13:32.969Z,4.49
2019-04-07T05:14:32.537Z,4.49
2019-04-07T05:15:32.650Z,4.50
2019-04-07T05:16:33.210Z,4.51
2019-04-07T05:17:32.619Z,4.50
2019-04-07T05:18:32.588Z,4.47
2019-04-07T05:19:32.528Z,4.55
2019-04-07T05:20:33.125Z,4.58
2019-04-07T05:21:32.617Z,4.64
2019-04-07T05:22:33.247Z,4.69
2019-04-07T05:23:32.619Z,4.73
2019-04-07T05:24:32.566Z,4.81
2019-04-07T05:25:32.775Z,4.87
2019-04-07T05:26:32.534Z,4.93
2019-04-07T05:27:32.708Z,5.02
2019-04-07T05:28:34.988Z,5.07
2019-04-07T05:29:32.590Z,5.11
2019-04-07T05:30:32.569Z,5.16
2019-04-07T05:31:32.546Z,5.23
2019-04-07T05:32:32.582Z,5.30
2019-04-07T05:33:32.616Z,5.36
2019-04-07T05:34:33.337Z,5.45
2019-04-07T05:35:32.961Z,5.51
2019-04-07T05:36:32.557Z,5.56
2019-04-07T05:37:32.936Z,5.63
2019-04-07T05:38:32.555Z,5.71
2019-04-07T05:39:32.950Z,5.75
2019-04-07T05:40:32.560Z,5.85
2019-04-07T05:41:32.663Z,5.91
2019-04-07T05:42:32.865Z,5.92
2019-04-07T05:43:32.747Z,5.87
2019-04-07T05:44:33.085Z,6.00
2019-04-07T05:45:35.514Z,6.06
2019-04-07T05:46:32.556Z,6.16
2019-04-07T05:47:33.012Z,6.23
2019-04-07T05:48:32.678Z,6.26
2019-04-07T05:49:32.574Z,6.16
2019-04-07T05:50:32.671Z,6.31
2019-04-07T05:51:32.769Z,6.42
2019-04-07T05:52:33.515Z,6.52
2019-04-07T05:53:32.581Z,6.63
2019-04-07T05:54:32.863Z,6.72
2019-04-07T05:55:32.553Z,6.82
2019-04-07T05:56:32.549Z,6.84
2019-04-07T05:57:34.683Z,6.79
2019-04-07T05:58:32.564Z,6.85
2019-04-07T05:59:32.847Z,6.91
2019-04-07T06:00:32.590Z,6.99
2019-04-07T06:01:33.377Z,7.19
2019-04-07T06:02:34.068Z,7.37
2019-04-07T06:03:32.974Z,7.47
2019-04-07T06:04:32.581Z,7.70
2019-04-07T06:05:32.580Z,7.80
2019-04-07T06:06:33.037Z,7.90
2019-04-07T06:07:34.949Z,7.94
2019-04-07T06:08:37.666Z,8.07
2019-04-07T06:09:33.701Z,8.12
2019-04-07T06:10:32.585Z,8.05
2019-04-07T06:11:35.172Z,8.25
2019-04-07T06:12:32.864Z,8.22
2019-04-07T06:13:32.949Z,8.36
2019-04-07T06:14:32.577Z,8.49
2019-04-07T06:15:32.598Z,8.61
2019-04-07T06:16:33.365Z,8.70
2019-04-07T06:17:32.594Z,8.86
2019-04-07T06:18:34.229Z,8.96
2019-04-07T06:19:32.611Z,9.06
2019-04-07T06:20:32.574Z,9.16
2019-04-07T06:21:33.339Z,9.22
2019-04-07T06:22:32.612Z,9.33
2019-04-07T06:23:33.156Z,9.34
2019-04-07T06:24:34.103Z,9.47
2019-04-07T06:25:36.936Z,9.68
2019-04-07T06:26:33.053Z,9.82
2019-04-07T06:27:32.632Z,9.99
2019-04-07T06:28:32.700Z,10.13
2019-04-07T06:29:33.329Z,10.16
2019-04-07T06:30:33.051Z,10.38
2019-04-07T06:31:33.944Z,10.61
2019-04-07T06:32:35.219Z,10.67
2019-04-07T06:33:36.665Z,10.76
2019-04-07T06:34:32.667Z,10.68
2019-04-07T06:35:32.621Z,11.12
2019-04-07T06:36:32.855Z,11.19
2019-04-07T06:37:33.111Z,10.23
2019-04-07T06:38:34.933Z,10.95
2019-04-07T06:39:32.607Z,11.21
2019-04-07T06:40:32.597Z,11.54
2019-04-07T06:41:34.113Z,11.82
2019-04-07T06:42:34.123Z,11.21
2019-04-07T06:43:35.203Z,11.39
2019-04-07T06:44:32.611Z,11.52
2019-04-07T06:45:33.277Z,11.96
2019-04-07T06:46:32.596Z,12.14
2019-04-07T06:47:33.420Z,12.42
2019-04-07T06:48:33.028Z,12.37
2019-04-07T06:49:32.814Z,12.45
2019-04-07T06:50:43.603Z,12.51
2019-04-07T06:51:32.619Z,12.72
2019-04-07T06:52:36.263Z,13.13
2019-04-07T06:53:32.733Z,13.17
2019-04-07T06:54:32.998Z,13.28
2019-04-07T06:55:33.370Z,13.11
2019-04-07T06:56:34.252Z,13.34
2019-04-07T06:57:35.137Z,13.41
2019-04-07T06:58:33.090Z,12.99
2019-04-07T06:59:32.882Z,13.11
2019-04-07T07:00:32.705Z,13.19
2019-04-07T07:01:32.611Z,13.41
2019-04-07T07:02:34.969Z,12.95
2019-04-07T07:03:36.056Z,12.85
2019-04-07T07:04:32.656Z,12.60
2019-04-07T07:05:34.980Z,12.83
2019-04-07T07:06:32.895Z,12.86
2019-04-07T07:07:32.651Z,13.07
2019-04-07T07:08:42.570Z,13.22
2019-04-07T07:09:33.377Z,13.48
2019-04-07T07:10:37.616Z,13.46
2019-04-07T07:11:34.469Z,13.60
2019-04-07T07:12:37.870Z,13.29
2019-04-07T07:13:35.313Z,12.85
2019-04-07T07:14:40.516Z,12.98
2019-04-07T07:15:35.382Z,13.14
2019-04-07T07:16:32.618Z,13.22
2019-04-07T07:17:33.162Z,13.09
2019-04-07T07:18:32.628Z,13.07
2019-04-07T07:19:32.850Z,13.27
2019-04-07T07:20:32.804Z,13.38
2019-04-07T07:21:36.453Z,13.52
2019-04-07T07:22:32.650Z,13.77
2019-04-07T07:23:33.206Z,13.78
2019-04-07T07:24:32.675Z,14.26
2019-04-07T07:25:33.278Z,14.47
2019-04-07T07:26:35.098Z,14.12
2019-04-07T07:27:32.809Z,13.23
2019-04-07T07:28:32.652Z,13.31
2019-04-07T07:29:33.715Z,13.46
2019-04-07T07:30:32.747Z,13.72
2019-04-07T07:31:32.661Z,14.22
2019-04-07T07:32:35.023Z,13.47
2019-04-07T07:33:33.385Z,13.70
2019-04-07T07:34:32.631Z,14.00
2019-04-07T07:35:33.376Z,14.48
2019-04-07T07:36:32.880Z,14.43
2019-04-07T07:37:33.354Z,15.05
2019-04-07T07:38:33.416Z,15.41
2019-04-07T07:39:32.688Z,14.81
2019-04-07T07:40:34.635Z,15.08
2019-04-07T07:41:32.711Z,15.04
2019-04-07T07:42:32.983Z,15.46
2019-04-07T07:43:32.671Z,15.82
2019-04-07T07:44:35.871Z,16.13
2019-04-07T07:45:32.964Z,16.38
2019-04-07T07:46:33.313Z,15.11
2019-04-07T07:47:32.752Z,14.88
2019-04-07T07:48:32.852Z,14.40
2019-04-07T07:49:35.131Z,14.58
2019-04-07T07:50:34.712Z,14.85
2019-04-07T07:51:32.685Z,14.91
2019-04-07T07:52:33.040Z,15.26
2019-04-07T07:53:32.932Z,14.77
2019-04-07T07:54:33.375Z,15.18
2019-04-07T07:55:35.994Z,15.29
2019-04-07T07:56:32.780Z,15.65
2019-04-07T07:57:32.705Z,15.19
2019-04-07T07:58:33.617Z,14.39
2019-04-07T07:59:37.646Z,14.37
2019-04-07T08:00:34.518Z,14.69
2019-04-07T08:01:33.218Z,14.80
2019-04-07T08:02:33.258Z,14.35
2019-04-07T08:03:32.666Z,13.34
2019-04-07T08:04:33.400Z,14.38
2019-04-07T08:05:33.456Z,15.22
2019-04-07T08:06:32.881Z,15.07
2019-04-07T08:07:32.680Z,15.24
2019-04-07T08:08:33.130Z,14.94
2019-04-07T08:09:32.918Z,14.67
2019-04-07T08:10:33.057Z,13.89
2019-04-07T08:11:33.594Z,14.11
2019-04-07T08:12:34.711Z,14.47
2019-04-07T08:13:33.729Z,14.47
2019-04-07T08:14:32.694Z,14.94
2019-04-07T08:15:33.467Z,15.11
2019-04-07T08:16:33.509Z,14.92
2019-04-07T08:17:33.926Z,14.88
2019-04-07T08:18:36.134Z,15.42
2019-04-07T08:19:33.008Z,15.39
2019-04-07T08:20:32.694Z,15.87
2019-04-07T08:21:32.730Z,15.91
2019-04-07T08:22:39.300Z,15.97
2019-04-07T08:23:32.675Z,16.17
2019-04-07T08:24:32.790Z,15.04
2019-04-07T08:25:33.506Z,15.19
2019-04-07T08:26:33.302Z,15.12
2019-04-07T08:27:33.167Z,15.37
2019-04-07T08:28:35.135Z,15.42
2019-04-07T08:29:33.428Z,15.70
2019-04-07T08:30:32.874Z,15.39
2019-04-07T08:31:32.735Z,15.40
2019-04-07T08:32:33.387Z,15.78
2019-04-07T08:33:33.175Z,16.17
2019-04-07T08:34:33.064Z,15.43
2019-04-07T08:35:35.653Z,15.58
2019-04-07T08:36:32.730Z,15.92
2019-04-07T08:37:32.686Z,16.21
2019-04-07T08:38:33.287Z,16.30
2019-04-07T08:39:35.205Z,16.39
2019-04-07T08:40:32.711Z,16.01
2019-04-07T08:41:33.447Z,16.43
2019-04-07T08:42:32.873Z,16.91
2019-04-07T08:43:32.982Z,17.00
2019-04-07T08:44:32.724Z,16.58
2019-04-07T08:45:32.856Z,16.57
2019-04-07T08:46:35.594Z,16.55
2019-04-07T08:47:33.375Z,15.91
2019-04-07T08:48:33.296Z,15.28
2019-04-07T08:49:33.556Z,15.80
2019-04-07T08:50:33.185Z,15.94
2019-04-07T08:51:33.568Z,16.71
2019-04-07T08:52:33.189Z,17.02
2019-04-07T08:53:32.928Z,17.08
2019-04-07T08:54:32.964Z,16.77
2019-04-07T08:55:33.450Z,17.13
2019-04-07T08:56:32.962Z,17.87
2019-04-07T08:57:32.749Z,18.10
2019-04-07T08:58:36.937Z,18.39
2019-04-07T08:59:32.736Z,17.23
2019-04-07T09:00:33.491Z,16.99
2019-04-07T09:01:32.746Z,16.53
2019-04-07T09:02:32.703Z,15.98
2019-04-07T09:03:33.177Z,16.09
2019-04-07T09:04:32.720Z,15.34
2019-04-07T09:05:33.499Z,15.91
2019-04-07T09:06:33.164Z,16.64
2019-04-07T09:07:33.482Z,17.33
2019-04-07T09:08:34.668Z,17.75
2019-04-07T09:09:35.939Z,17.90
2019-04-07T09:10:33.590Z,18.14
2019-04-07T09:11:33.533Z,17.80
2019-04-07T09:12:32.799Z,16.91
2019-04-07T09:13:34.071Z,16.67
2019-04-07T09:14:32.737Z,16.56
2019-04-07T09:15:32.899Z,16.58
2019-04-07T09:16:33.571Z,17.32
2019-04-07T09:17:38.771Z,16.51
2019-04-07T09:18:33.424Z,16.43
2019-04-07T09:19:35.032Z,16.58
2019-04-07T09:20:32.829Z,16.19
2019-04-07T09:21:38.751Z,15.89
2019-04-07T09:22:32.798Z,15.44
2019-04-07T09:23:32.816Z,16.22
2019-04-07T09:24:33.421Z,17.42
2019-04-07T09:25:33.121Z,18.17
2019-04-07T09:26:33.326Z,17.75
2019-04-07T09:27:32.815Z,17.89
2019-04-07T09:28:33.171Z,17.73
2019-04-07T09:29:32.801Z,16.92
2019-04-07T09:30:32.774Z,16.79
2019-04-07T09:31:33.263Z,16.23
2019-04-07T09:32:33.418Z,17.04
2019-04-07T09:33:35.722Z,18.03
2019-04-07T09:34:33.408Z,17.50
2019-04-07T09:35:33.317Z,16.85
2019-04-07T09:36:33.512Z,16.46
2019-04-07T09:37:33.412Z,17.42
2019-04-07T09:38:33.392Z,17.61
2019-04-07T09:39:50.710Z,16.77
2019-04-07T09:40:32.749Z,17.68
2019-04-07T09:41:32.760Z,17.57
2019-04-07T09:42:33.372Z,18.54
2019-04-07T09:43:33.472Z,18.62
2019-04-07T09:44:36.562Z,18.31
2019-04-07T09:45:33.398Z,17.94
2019-04-07T09:46:32.775Z,18.19
2019-04-07T09:47:32.922Z,18.36
2019-04-07T09:48:33.410Z,17.50
2019-04-07T09:49:32.774Z,17.47
2019-04-07T09:50:32.783Z,16.11
2019-04-07T09:51:33.155Z,18.12
2019-04-07T09:52:32.756Z,17.36
2019-04-07T09:53:32.782Z,16.91
2019-04-07T09:54:32.814Z,16.47
2019-04-07T09:55:33.243Z,17.90
2019-04-07T09:56:33.635Z,18.49
2019-04-07T09:57:35.474Z,18.93
2019-04-07T09:58:33.189Z,19.18
2019-04-07T09:59:32.845Z,18.94
2019-04-07T10:00:33.786Z,17.25
2019-04-07T10:01:33.048Z,17.54
2019-04-07T10:02:35.474Z,18.58
2019-04-07T10:03:32.790Z,19.16
2019-04-07T10:04:32.770Z,17.65
2019-04-07T10:05:32.829Z,18.31
2019-04-07T10:06:32.839Z,16.13
2019-04-07T10:07:33.432Z,17.29
2019-04-07T10:08:32.816Z,16.42
2019-04-07T10:09:33.489Z,16.96
2019-04-07T10:10:32.783Z,17.04
2019-04-07T10:11:32.826Z,17.52
2019-04-07T10:12:33.481Z,16.60
2019-04-07T10:13:32.788Z,18.28
2019-04-07T10:14:32.809Z,16.68
2019-04-07T10:15:32.873Z,18.00
2019-04-07T10:16:33.893Z,18.18
2019-04-07T10:17:32.936Z,17.92
2019-04-07T10:18:33.809Z,16.50
2019-04-07T10:19:32.834Z,16.79
2019-04-07T10:20:33.602Z,16.72
2019-04-07T10:21:32.867Z,16.66
2019-04-07T10:22:32.821Z,17.76
2019-04-07T10:23:32.834Z,16.71
2019-04-07T10:24:33.138Z,17.00
2019-04-07T10:25:33.264Z,17.70
2019-04-07T10:26:33.629Z,16.07
2019-04-07T10:27:32.938Z,16.14
2019-04-07T10:28:33.418Z,17.45
2019-04-07T10:29:33.086Z,16.46
2019-04-07T10:30:32.832Z,17.33
2019-04-07T10:31:32.815Z,18.01
2019-04-07T10:32:32.830Z,17.98
2019-04-07T10:33:33.444Z,16.64
2019-04-07T10:34:33.129Z,16.98
2019-04-07T10:35:33.484Z,17.26
2019-04-07T10:36:32.959Z,17.06
2019-04-07T10:37:33.518Z,18.10
2019-04-07T10:38:32.839Z,19.07
2019-04-07T10:39:33.633Z,20.18
2019-04-07T10:40:33.455Z,20.09
2019-04-07T10:41:32.829Z,19.08
2019-04-07T10:42:33.490Z,18.60
2019-04-07T10:43:32.821Z,18.67
2019-04-07T10:44:34.081Z,19.70
2019-04-07T10:45:32.992Z,19.54
2019-04-07T10:46:33.593Z,19.81
2019-04-07T10:47:33.521Z,20.52
2019-04-07T10:48:33.268Z,20.53
2019-04-07T10:49:33.012Z,20.17
2019-04-07T10:50:33.591Z,20.85
2019-04-07T10:51:32.939Z,21.75
2019-04-07T10:52:32.900Z,21.40
2019-04-07T10:53:34.067Z,20.79
2019-04-07T10:54:33.666Z,21.45
2019-04-07T10:55:33.022Z,22.20
2019-04-07T10:56:32.930Z,22.46
2019-04-07T10:57:33.423Z,22.21
2019-04-07T10:58:33.258Z,22.02
2019-04-07T10:59:32.985Z,21.70
2019-04-07T11:00:33.450Z,19.68
2019-04-07T11:01:33.360Z,20.79
2019-04-07T11:02:33.039Z,20.81
2019-04-07T11:03:33.045Z,20.09
2019-04-07T11:04:33.033Z,19.56
2019-04-07T11:05:33.135Z,19.45
2019-04-07T11:06:33.865Z,20.67
2019-04-07T11:07:33.797Z,20.29
2019-04-07T11:08:33.809Z,20.76
2019-04-07T11:09:33.113Z,21.07
2019-04-07T11:10:37.320Z,22.02
2019-04-07T11:11:33.136Z,22.45
2019-04-07T11:12:33.144Z,22.17
2019-04-07T11:13:33.084Z,22.54
2019-04-07T11:14:33.158Z,23.04
2019-04-07T11:15:33.107Z,23.03
2019-04-07T11:16:33.740Z,22.17
2019-04-07T11:17:33.811Z,21.93
2019-04-07T11:18:33.717Z,20.80
2019-04-07T11:19:33.384Z,22.21
2019-04-07T11:20:33.838Z,22.15
2019-04-07T11:21:33.823Z,22.38
2019-04-07T11:22:36.037Z,20.90
2019-04-07T11:23:33.126Z,21.76
2019-04-07T11:24:33.818Z,22.90
2019-04-07T11:25:33.650Z,23.39
2019-04-07T11:26:33.135Z,20.93
2019-04-07T11:27:33.153Z,20.08
2019-04-07T11:28:33.793Z,20.09
2019-04-07T11:29:33.714Z,21.64
2019-04-07T11:30:33.320Z,21.55
2019-04-07T11:31:33.117Z,19.66
2019-04-07T11:32:33.144Z,20.26
2019-04-07T11:33:33.933Z,19.56
2019-04-07T11:34:33.187Z,19.21
2019-04-07T11:35:33.155Z,20.22
2019-04-07T11:36:33.213Z,20.78
2019-04-07T11:37:33.129Z,21.96
2019-04-07T11:38:33.111Z,22.83
2019-04-07T11:39:33.155Z,22.31
2019-04-07T11:40:42.612Z,21.22
2019-04-07T11:41:33.149Z,22.02
2019-04-07T11:42:33.412Z,22.60
2019-04-07T11:43:33.132Z,22.36
2019-04-07T11:44:33.905Z,19.84
2019-04-07T11:45:33.445Z,21.18
2019-04-07T11:46:33.821Z,21.32
2019-04-07T11:47:33.964Z,20.99
2019-04-07T11:48:33.278Z,19.91
2019-04-07T11:49:33.151Z,20.77
2019-04-07T11:50:33.137Z,20.98
2019-04-07T11:51:33.213Z,20.72
2019-04-07T11:52:33.341Z,18.92
2019-04-07T11:53:33.168Z,20.26
2019-04-07T11:54:33.865Z,21.60
2019-04-07T11:55:33.421Z,22.11
2019-04-07T11:56:33.952Z,21.00
2019-04-07T11:57:33.482Z,19.33
2019-04-07T11:58:34.641Z,20.29
2019-04-07T11:59:33.191Z,19.67
2019-04-07T12:00:33.383Z,19.36
2019-04-07T12:01:33.859Z,19.22
2019-04-07T12:02:33.164Z,18.39
2019-04-07T12:03:33.183Z,19.23
2019-04-07T12:04:34.455Z,18.81
2019-04-07T12:05:33.394Z,19.02
2019-04-07T12:06:33.257Z,19.23
2019-04-07T12:07:33.410Z,20.86
2019-04-07T12:08:35.916Z,21.24
2019-04-07T12:09:33.702Z,22.02
2019-04-07T12:10:33.242Z,21.60
2019-04-07T12:11:33.171Z,20.91
2019-04-07T12:12:33.197Z,19.49
2019-04-07T12:13:33.165Z,20.79
2019-04-07T12:14:33.865Z,21.82
2019-04-07T12:15:33.516Z,21.35
2019-04-07T12:16:33.796Z,19.27
2019-04-07T12:17:33.969Z,19.29
2019-04-07T12:18:34.085Z,19.70
2019-04-07T12:19:33.323Z,20.70
2019-04-07T12:20:34.106Z,21.32
2019-04-07T12:21:37.184Z,21.64
2019-04-07T12:22:33.794Z,21.88
2019-04-07T12:23:33.728Z,21.19
2019-04-07T12:24:33.672Z,21.44
2019-04-07T12:25:33.869Z,21.80
2019-04-07T12:26:37.331Z,20.74
2019-04-07T12:27:33.406Z,20.60
2019-04-07T12:28:33.452Z,21.02
2019-04-07T12:29:33.216Z,21.22
2019-04-07T12:30:33.792Z,21.52
2019-04-07T12:31:33.657Z,21.15
2019-04-07T12:32:34.239Z,22.00
2019-04-07T12:33:37.207Z,21.80
2019-04-07T12:34:33.344Z,21.58
2019-04-07T12:35:34.026Z,20.20
2019-04-07T12:36:33.309Z,21.02
2019-04-07T12:37:38.117Z,22.51
2019-04-07T12:38:33.855Z,22.91
2019-04-07T12:39:34.884Z,22.98
2019-04-07T12:40:33.210Z,21.73
2019-04-07T12:41:33.226Z,22.00
2019-04-07T12:42:33.341Z,22.18
2019-04-07T12:43:33.971Z,22.71
2019-04-07T12:44:33.276Z,22.28
2019-04-07T12:45:35.624Z,22.69
2019-04-07T12:46:33.267Z,20.59
2019-04-07T12:47:33.241Z,21.28
2019-04-07T12:48:33.267Z,21.99
2019-04-07T12:49:35.144Z,21.37
2019-04-07T12:50:33.804Z,20.90
2019-04-07T12:51:33.912Z,20.45
2019-04-07T12:52:33.475Z,21.52
2019-04-07T12:53:35.929Z,22.16
2019-04-07T12:54:33.237Z,22.33
2019-04-07T12:55:33.217Z,20.82
2019-04-07T12:56:34.173Z,19.40
2019-04-07T12:57:37.705Z,19.11
2019-04-07T12:58:33.220Z,18.76
2019-04-07T12:59:33.648Z,19.55
2019-04-07T13:00:44.416Z,20.36
2019-04-07T13:01:33.867Z,19.59
2019-04-07T13:02:33.787Z,20.15
2019-04-07T13:03:33.314Z,20.01
2019-04-07T13:04:33.226Z,18.98
2019-04-07T13:05:35.639Z,18.33